createdAt,value
2023-01-05T00:01:51.382Z,3.22
2023-01-05T00:04:20.424Z,3.28
2023-01-05T00:06:48.591Z,3.21
2023-01-05T00:09:18.333Z,3.17
2023-01-05T00:12:04.504Z,3.08
2023-01-05T00:14:52.613Z,3.06
2023-01-05T00:17:41.592Z,3.12
2023-01-05T00:20:37.844Z,3.11
2023-01-05T00:23:06.481Z,3.01
2023-01-05T00:25:38.608Z,3.02
2023-01-05T00:28:06.527Z,2.98
2023-01-05T00:30:45.526Z,2.95
2023-01-05T00:33:17.803Z,3.00
2023-01-05T00:35:45.488Z,3.00
2023-01-05T00:38:13.079Z,3.03
2023-01-05T00:40:40.777Z,2.95
2023-01-05T00:43:08.430Z,3.05
2023-01-05T00:45:36.150Z,3.01
2023-01-05T00:48:04.145Z,3.03
2023-01-05T00:50:31.781Z,2.88
2023-01-05T00:53:01.259Z,2.96
2023-01-05T00:55:29.407Z,2.95
2023-01-05T00:57:56.910Z,2.96
2023-01-05T01:00:27.268Z,2.94
2023-01-05T01:02:55.831Z,2.93
2023-01-05T01:05:23.501Z,3.01
2023-01-05T01:07:53.566Z,2.99
2023-01-05T01:10:21.258Z,2.94
2023-01-05T01:12:48.964Z,2.95
2023-01-05T01:15:16.597Z,2.81
2023-01-05T01:17:44.832Z,2.78
2023-01-05T01:20:12.652Z,2.76
2023-01-05T01:22:40.304Z,2.79
2023-01-05T01:25:08.977Z,2.74
2023-01-05T01:27:37.168Z,2.76
2023-01-05T01:30:05.561Z,2.82
2023-01-05T01:32:35.269Z,2.79
2023-01-05T01:35:02.875Z,2.74
2023-01-05T01:37:30.591Z,2.74
2023-01-05T01:39:59.393Z,2.81
2023-01-05T01:42:27.407Z,2.78
2023-01-05T01:45:12.370Z,2.77
2023-01-05T01:47:49.180Z,2.61
2023-01-05T01:50:31.178Z,2.69
2023-01-05T01:53:03.658Z,2.59
2023-01-05T01:55:35.820Z,2.60
2023-01-05T01:58:07.540Z,2.50
2023-01-05T02:00:35.556Z,2.43
2023-01-05T02:03:04.945Z,2.48
2023-01-05T02:05:34.813Z,2.45
2023-01-05T02:08:02.363Z,2.47
2023-01-05T02:10:55.130Z,2.45
2023-01-05T02:13:42.243Z,2.52
2023-01-05T02:16:16.709Z,2.58
2023-01-05T02:19:20.717Z,2.58
2023-01-05T02:22:08.883Z,2.60
2023-01-05T02:25:15.513Z,2.47
2023-01-05T02:27:54.164Z,2.46
2023-01-05T02:30:59.479Z,2.44
2023-01-05T02:33:56.873Z,2.44
2023-01-05T02:36:29.800Z,2.38
2023-01-05T02:39:26.901Z,2.42
2023-01-05T02:42:08.387Z,2.39
2023-01-05T02:44:36.563Z,2.33
2023-01-05T02:47:28.188Z,2.27
2023-01-05T02:50:06.784Z,2.31
2023-01-05T02:52:51.475Z,2.25
2023-01-05T02:55:26.459Z,2.34
2023-01-05T02:58:04.340Z,2.33
2023-01-05T03:00:40.746Z,2.32
2023-01-05T03:03:27.143Z,2.32
2023-01-05T03:06:16.519Z,2.26
2023-01-05T03:08:51.752Z,2.21
2023-01-05T03:11:40.615Z,2.22
2023-01-05T03:14:14.527Z,2.14
2023-01-05T03:16:46.739Z,2.17
2023-01-05T03:19:40.052Z,2.13
2023-01-05T03:22:29.036Z,2.17
2023-01-05T03:25:18.874Z,2.18
2023-01-05T03:28:06.714Z,2.16
2023-01-05T03:31:08.818Z,2.15
2023-01-05T03:34:15.599Z,2.09
2023-01-05T03:37:09.107Z,2.12
2023-01-05T03:39:43.109Z,2.17
2023-01-05T03:42:12.865Z,2.33
2023-01-05T03:44:44.185Z,2.33
2023-01-05T03:47:15.649Z,2.34
2023-01-05T03:49:44.993Z,2.32
2023-01-05T03:52:13.666Z,2.33
2023-01-05T03:54:43.292Z,2.45
2023-01-05T03:57:14.039Z,2.35
2023-01-05T03:59:42.376Z,2.34
2023-01-05T04:02:10.019Z,2.26
2023-01-05T04:04:40.162Z,2.14
2023-01-05T04:07:09.577Z,2.16
2023-01-05T04:09:37.429Z,2.17
2023-01-05T04:12:05.237Z,2.12
2023-01-05T04:14:38.930Z,2.07
2023-01-05T04:17:07.502Z,2.07
2023-01-05T04:19:35.328Z,2.14
2023-01-05T04:22:03.118Z,2.15
2023-01-05T04:24:32.975Z,2.16
2023-01-05T04:27:02.470Z,2.16
2023-01-05T04:29:31.089Z,2.17
2023-01-05T04:32:02.232Z,2.27
2023-01-05T04:34:29.993Z,2.34
2023-01-05T04:36:59.654Z,2.24
2023-01-05T04:39:28.750Z,2.25
2023-01-05T04:41:57.191Z,2.25
2023-01-05T04:44:26.058Z,2.29
2023-01-05T04:46:55.476Z,2.25
2023-01-05T04:49:23.702Z,2.22
2023-01-05T04:51:52.756Z,2.28
2023-01-05T04:54:23.131Z,2.32
2023-01-05T04:56:50.950Z,2.35
2023-01-05T04:59:19.767Z,2.31
2023-01-05T05:01:49.762Z,2.35
2023-01-05T05:04:17.537Z,2.35
2023-01-05T05:06:46.823Z,2.35
2023-01-05T05:09:16.205Z,2.26
2023-01-05T05:11:44.105Z,2.26
2023-01-05T05:14:12.961Z,2.10
2023-01-05T05:16:40.661Z,2.15
2023-01-05T05:19:10.579Z,2.13
2023-01-05T05:21:39.435Z,2.14
2023-01-05T05:24:07.625Z,2.18
2023-01-05T05:26:38.811Z,2.22
2023-01-05T05:29:06.483Z,2.25
2023-01-05T05:31:34.291Z,2.28
2023-01-05T05:34:01.915Z,2.28
2023-01-05T05:36:29.579Z,2.31
2023-01-05T05:38:58.353Z,2.25
2023-01-05T05:41:26.031Z,2.31
2023-01-05T05:43:53.572Z,2.30
2023-01-05T05:46:21.399Z,2.37
2023-01-05T05:48:49.069Z,2.38
2023-01-05T05:51:16.609Z,2.41
2023-01-05T05:53:44.643Z,2.38
2023-01-05T05:56:12.174Z,2.36
2023-01-05T05:58:39.675Z,2.41
2023-01-05T06:01:07.909Z,2.38
2023-01-05T06:03:35.767Z,2.38
2023-01-05T06:06:04.644Z,2.36
2023-01-05T06:08:32.319Z,2.41
2023-01-05T06:11:00.709Z,2.39
2023-01-05T06:13:29.038Z,2.50
2023-01-05T06:15:56.553Z,2.52
2023-01-05T06:18:24.352Z,2.57
2023-01-05T06:20:56.291Z,2.65
2023-01-05T06:23:27.166Z,2.47
2023-01-05T06:25:54.773Z,2.55
2023-01-05T06:28:22.298Z,2.54
2023-01-05T06:30:49.900Z,2.56
2023-01-05T06:33:17.452Z,2.61
2023-01-05T06:35:46.435Z,2.61
2023-01-05T06:38:16.135Z,2.72
2023-01-05T06:40:44.799Z,2.65
2023-01-05T06:43:12.699Z,2.69
2023-01-05T06:45:40.363Z,2.58
2023-01-05T06:48:07.922Z,2.63
2023-01-05T06:50:36.120Z,2.64
2023-01-05T06:53:03.994Z,2.66
2023-01-05T06:55:31.710Z,2.74
2023-01-05T06:58:01.311Z,2.84
2023-01-05T07:00:29.703Z,2.87
2023-01-05T07:02:57.282Z,2.78
2023-01-05T07:05:26.524Z,2.77
2023-01-05T07:07:54.324Z,2.80
2023-01-05T07:10:21.931Z,2.80
2023-01-05T07:12:50.313Z,2.94
2023-01-05T07:15:18.025Z,3.06
2023-01-05T07:17:46.083Z,3.14
2023-01-05T07:20:13.993Z,2.95
2023-01-05T07:22:41.691Z,2.94
2023-01-05T07:25:10.228Z,2.93
2023-01-05T07:27:37.906Z,2.98
2023-01-05T07:30:06.264Z,3.01
2023-01-05T07:32:35.005Z,3.08
2023-01-05T07:35:02.662Z,3.02
2023-01-05T07:37:30.408Z,3.03
2023-01-05T07:39:57.992Z,3.02
2023-01-05T07:42:26.226Z,2.96
2023-01-05T07:44:53.874Z,2.98
2023-01-05T07:47:22.691Z,3.06
2023-01-05T07:49:50.362Z,3.05
2023-01-05T07:52:17.956Z,3.05
2023-01-05T07:54:46.369Z,3.17
2023-01-05T07:57:14.390Z,3.25
2023-01-05T08:10:49.126Z,3.48
2023-01-05T08:13:36.383Z,3.52
2023-01-05T08:16:04.521Z,3.59
2023-01-05T08:18:33.618Z,3.57
2023-01-05T08:26:42.124Z,3.68
2023-01-05T08:29:10.030Z,3.68
2023-01-05T08:31:39.547Z,3.59
2023-01-05T08:34:07.797Z,3.58
2023-01-05T08:36:36.503Z,3.66
2023-01-05T08:39:08.383Z,3.69
2023-01-05T08:41:38.465Z,3.73
2023-01-05T08:44:16.632Z,3.75
2023-01-05T08:46:44.298Z,3.68
2023-01-05T08:50:08.020Z,3.74
2023-01-05T08:53:05.549Z,3.66
2023-01-05T08:55:35.092Z,3.60
2023-01-05T08:58:03.412Z,3.67
2023-01-05T09:00:30.998Z,3.69
2023-01-05T09:02:58.619Z,3.69
2023-01-05T09:05:30.220Z,3.79
2023-01-05T09:07:57.890Z,3.80
2023-01-05T09:10:25.539Z,3.79
2023-01-05T09:12:53.226Z,3.73
2023-01-05T09:15:21.135Z,3.82
2023-01-05T09:17:49.142Z,3.92
2023-01-05T09:20:16.790Z,3.97
2023-01-05T09:22:45.151Z,4.04
2023-01-05T09:25:12.853Z,4.03
2023-01-05T09:27:41.497Z,4.05
2023-01-05T09:30:09.747Z,4.03
2023-01-05T09:32:37.846Z,4.06
2023-01-05T09:35:05.714Z,4.08
2023-01-05T09:37:33.389Z,4.13
2023-01-05T09:40:01.015Z,3.95
2023-01-05T09:42:32.415Z,3.92
2023-01-05T09:45:05.156Z,3.82
2023-01-05T09:47:37.975Z,3.75
2023-01-05T09:50:16.999Z,3.72
2023-01-05T09:52:44.676Z,3.58
2023-01-05T09:55:17.506Z,3.59
2023-01-05T09:57:54.750Z,3.63
2023-01-05T10:00:24.299Z,3.63
2023-01-05T10:03:29.231Z,3.57
2023-01-05T10:06:01.212Z,3.62
2023-01-05T10:08:38.165Z,3.64
2023-01-05T10:11:30.723Z,3.64
2023-01-05T10:14:05.367Z,3.66
2023-01-05T10:16:33.631Z,3.72
2023-01-05T10:19:02.425Z,3.69
2023-01-05T10:22:02.647Z,3.73
2023-01-05T10:25:08.151Z,3.66
2023-01-05T10:27:57.963Z,3.70
2023-01-05T10:30:35.113Z,3.66
2023-01-05T10:33:32.007Z,3.68
2023-01-05T10:37:06.535Z,3.73
2023-01-05T10:39:38.632Z,3.76
2023-01-05T10:42:16.342Z,3.76
2023-01-05T10:44:59.765Z,3.72
2023-01-05T10:47:30.594Z,3.78
2023-01-05T10:50:01.310Z,3.86
2023-01-05T10:52:29.803Z,3.81
2023-01-05T10:55:01.924Z,3.86
2023-01-05T10:57:35.922Z,3.84
2023-01-05T11:00:10.032Z,3.87
2023-01-05T11:02:47.996Z,3.86
2023-01-05T11:05:42.866Z,3.88
2023-01-05T11:08:19.741Z,3.94
2023-01-05T11:10:55.823Z,3.99
2023-01-05T11:13:31.279Z,4.02
2023-01-05T11:16:12.656Z,4.05
2023-01-05T11:19:03.662Z,4.10
2023-01-05T11:21:39.466Z,4.16
2023-01-05T11:24:31.803Z,4.18
2023-01-05T11:27:03.251Z,4.23
2023-01-05T11:29:31.186Z,4.21
2023-01-05T11:32:10.929Z,4.26
2023-01-05T11:34:46.145Z,4.31
2023-01-05T11:37:26.509Z,4.36
2023-01-05T11:39:59.739Z,4.41
2023-01-05T11:42:27.513Z,4.45
2023-01-05T11:45:16.811Z,4.46
2023-01-05T11:47:47.866Z,4.43
2023-01-05T11:50:21.783Z,4.51
2023-01-05T11:52:51.734Z,4.52
2023-01-05T11:55:30.606Z,4.57
2023-01-05T11:58:17.859Z,4.56
2023-01-05T12:00:53.273Z,4.62
2023-01-05T12:03:35.661Z,4.65
2023-01-05T12:06:26.220Z,4.69
2023-01-05T12:08:57.006Z,4.74
2023-01-05T12:11:32.077Z,4.79
2023-01-05T12:14:36.818Z,4.78
2023-01-05T12:17:14.677Z,4.73
2023-01-05T12:20:21.065Z,4.82
2023-01-05T12:23:30.411Z,4.79
2023-01-05T12:26:16.778Z,4.83
2023-01-05T12:30:24.656Z,4.84
2023-01-05T12:35:17.094Z,4.83
2023-01-05T12:37:47.280Z,4.92
2023-01-05T12:40:45.351Z,4.95
2023-01-05T12:43:28.224Z,4.99
2023-01-05T12:46:00.915Z,4.92
2023-01-05T12:48:31.459Z,4.97
2023-01-05T12:51:20.732Z,4.96
2023-01-05T12:53:51.002Z,4.94
2023-01-05T12:56:30.203Z,4.93
2023-01-05T13:02:42.775Z,5.01
2023-01-05T13:05:25.742Z,5.00
2023-01-05T13:08:16.089Z,4.96
2023-01-05T13:10:50.313Z,5.01
2023-01-05T13:13:23.477Z,5.03
2023-01-05T13:16:05.809Z,5.00
2023-01-05T13:18:38.107Z,5.08
2023-01-05T13:21:12.699Z,5.10
2023-01-05T13:24:09.835Z,5.10
2023-01-05T13:26:38.499Z,5.10
2023-01-05T13:29:06.425Z,5.06
2023-01-05T13:32:08.313Z,5.17
2023-01-05T13:34:35.831Z,5.15
2023-01-05T13:37:34.273Z,5.09
2023-01-05T13:40:17.261Z,5.14
2023-01-05T13:43:22.536Z,5.16
2023-01-05T13:46:22.823Z,5.16
2023-01-05T13:49:11.390Z,5.14
2023-01-05T13:51:54.619Z,5.15
2023-01-05T13:55:02.003Z,5.12
2023-01-05T13:57:38.270Z,5.12
2023-01-05T14:00:40.016Z,5.08
2023-01-05T14:03:21.900Z,5.02
2023-01-05T14:05:59.240Z,5.00
2023-01-05T14:08:39.755Z,4.97
2023-01-05T14:11:19.650Z,4.89
2023-01-05T14:14:05.009Z,4.87
2023-01-05T14:16:35.930Z,4.81
2023-01-05T14:19:22.610Z,4.79
2023-01-05T14:21:54.109Z,4.79
2023-01-05T14:24:32.149Z,4.74
2023-01-05T14:27:11.655Z,4.76
2023-01-05T14:29:48.195Z,4.73
2023-01-05T14:32:38.937Z,4.76
2023-01-05T14:35:29.377Z,4.74
2023-01-05T14:37:57.050Z,4.77
2023-01-05T14:40:43.904Z,4.77
2023-01-05T14:43:36.674Z,4.77
2023-01-05T14:46:15.411Z,4.76
2023-01-05T14:48:59.560Z,4.81
2023-01-05T14:51:30.033Z,4.82
2023-01-05T14:54:03.185Z,4.79
2023-01-05T14:56:35.244Z,4.81
2023-01-05T14:59:20.317Z,4.77
2023-01-05T15:02:01.096Z,4.77
2023-01-05T15:04:33.618Z,4.74
2023-01-05T15:07:20.036Z,4.76
2023-01-05T15:10:08.299Z,4.76
2023-01-05T15:13:12.399Z,4.76
2023-01-05T15:15:58.112Z,4.78
2023-01-05T15:18:25.735Z,4.75
2023-01-05T15:21:11.977Z,4.76
2023-01-05T15:24:16.167Z,4.76
2023-01-05T15:27:23.814Z,4.77
2023-01-05T15:29:58.800Z,4.75
2023-01-05T15:32:35.628Z,4.78
2023-01-05T17:14:31.521Z,4.92
2023-01-05T17:17:02.156Z,4.93
2023-01-05T17:19:29.904Z,4.90
2023-01-05T17:22:00.960Z,4.91
2023-01-05T17:24:31.943Z,4.94
2023-01-05T17:27:00.239Z,5.00
2023-01-05T17:29:32.527Z,5.02
2023-01-05T17:32:00.219Z,5.02
2023-01-05T17:34:27.887Z,5.03
2023-01-05T17:36:58.482Z,5.07
2023-01-05T17:39:26.187Z,5.05
2023-01-05T17:42:14.014Z,5.11
2023-01-05T17:44:42.613Z,5.10
2023-01-05T17:47:10.248Z,5.13
2023-01-05T17:49:38.271Z,5.12
2023-01-05T17:52:05.967Z,5.11
2023-01-05T17:54:33.917Z,5.16
2023-01-05T17:57:01.657Z,5.16
2023-01-05T17:59:29.396Z,5.17
2023-01-05T18:01:58.272Z,5.18
2023-01-05T18:04:27.227Z,5.20
2023-01-05T18:06:56.374Z,5.20
2023-01-05T18:11:56.665Z,5.04
2023-01-05T18:14:24.627Z,4.97
2023-01-05T18:16:52.251Z,4.98
2023-01-05T18:19:20.293Z,4.93
2023-01-05T18:21:47.891Z,4.98
2023-01-05T18:24:16.573Z,4.94
2023-01-05T18:26:44.227Z,4.99
2023-01-05T18:29:11.798Z,5.01
2023-01-05T18:31:43.468Z,5.03
2023-01-05T18:34:11.289Z,5.04
2023-01-05T18:36:39.338Z,5.04
2023-01-05T18:39:07.169Z,5.07
2023-01-05T18:41:35.879Z,5.11
2023-01-05T18:44:05.368Z,5.14
2023-01-05T18:46:33.206Z,5.11
2023-01-05T18:49:00.881Z,5.08
2023-01-05T18:51:28.448Z,5.11
2023-01-05T18:53:56.042Z,5.09
2023-01-05T18:56:24.814Z,5.09
2023-01-05T18:58:54.086Z,5.10
2023-01-05T19:01:23.684Z,5.17
2023-01-05T19:03:53.220Z,5.12
2023-01-05T19:06:23.871Z,5.16
2023-01-05T19:08:52.042Z,5.18
2023-01-05T19:11:22.151Z,5.15
2023-01-05T19:13:50.318Z,5.12
2023-01-05T19:16:21.190Z,5.14
2023-01-05T19:18:52.459Z,5.11
2023-01-05T19:21:23.764Z,5.07
2023-01-05T19:23:56.675Z,5.14
2023-01-05T19:26:25.261Z,5.14
2023-01-05T19:28:52.942Z,5.16
2023-01-05T19:31:23.368Z,5.14
2023-01-05T19:33:53.179Z,5.14
2023-01-05T19:36:22.790Z,5.15
2023-01-05T19:38:50.348Z,5.17
2023-01-05T19:41:20.731Z,5.16
2023-01-05T19:43:50.100Z,5.19
2023-01-05T19:46:20.328Z,5.22
2023-01-05T19:48:48.532Z,5.23
2023-01-05T19:51:20.621Z,5.25
2023-01-05T19:53:56.670Z,5.25
2023-01-05T19:56:27.208Z,5.23
2023-01-05T19:58:57.620Z,5.25
2023-01-05T20:01:27.464Z,5.24
2023-01-05T20:03:55.793Z,5.27
2023-01-05T20:06:28.935Z,5.22
2023-01-05T20:09:13.118Z,5.22
2023-01-05T20:11:44.565Z,5.19
2023-01-05T20:14:31.895Z,5.26
2023-01-05T20:17:03.730Z,5.26
2023-01-05T20:19:33.373Z,5.23
2023-01-05T20:22:02.803Z,5.28
2023-01-05T20:24:33.627Z,5.32
2023-01-05T20:27:08.474Z,5.35
2023-01-05T20:29:36.790Z,5.37
2023-01-05T20:32:09.298Z,5.38
2023-01-05T20:34:38.935Z,5.36
2023-01-05T20:37:09.324Z,5.35
2023-01-05T20:39:39.926Z,5.40
2023-01-05T20:42:10.641Z,5.33
2023-01-05T20:44:41.884Z,5.34
2023-01-05T20:47:11.666Z,5.32
2023-01-05T20:49:40.291Z,5.33
2023-01-05T20:52:09.964Z,5.39
2023-01-05T20:54:39.253Z,5.40
2023-01-05T20:57:08.021Z,5.44
2023-01-05T20:59:38.829Z,5.41
2023-01-05T21:02:18.385Z,5.43
2023-01-05T21:04:50.904Z,5.46
2023-01-05T21:10:43.634Z,5.54
2023-01-05T21:13:30.577Z,5.53
2023-01-05T21:16:03.949Z,5.49
2023-01-05T21:18:33.525Z,5.51
2023-01-05T21:21:04.296Z,5.52
2023-01-05T21:23:31.902Z,5.49
2023-01-05T21:26:07.054Z,5.49
2023-01-05T21:28:38.547Z,5.54
2023-01-05T21:31:17.106Z,5.58
2023-01-05T21:33:50.253Z,5.57
2023-01-05T21:36:23.510Z,5.60
2023-01-05T21:39:01.125Z,5.59
2023-01-05T21:41:52.540Z,5.61
2023-01-05T21:44:30.769Z,5.66
2023-01-05T21:47:02.584Z,5.67
2023-01-05T21:49:38.173Z,5.61
2023-01-05T21:52:30.666Z,5.69
2023-01-05T21:55:21.244Z,5.67
2023-01-05T21:57:48.842Z,5.68
2023-01-05T22:00:19.042Z,5.68
2023-01-05T22:02:49.258Z,5.71
2023-01-05T22:05:17.073Z,5.71
2023-01-05T22:07:46.512Z,5.73
2023-01-05T22:10:14.283Z,5.74
2023-01-05T22:18:00.576Z,5.81
2023-01-05T22:20:28.375Z,5.84
2023-01-05T22:22:55.928Z,5.85
2023-01-05T22:25:24.113Z,5.86
2023-01-05T22:27:51.718Z,5.89
2023-01-05T22:30:19.378Z,5.90
2023-01-05T22:32:49.042Z,5.90
2023-01-05T22:35:17.171Z,5.90
2023-01-05T22:37:47.243Z,5.96
2023-01-05T22:40:15.172Z,5.94
2023-01-05T22:42:42.832Z,5.96
2023-01-05T22:45:10.796Z,5.97
2023-01-05T22:47:38.493Z,5.97
2023-01-05T22:50:07.493Z,5.97
2023-01-05T22:52:35.333Z,5.95
2023-01-05T22:55:03.122Z,5.94
2023-01-05T22:57:31.040Z,5.96
2023-01-05T22:59:58.918Z,5.93
2023-01-05T23:02:26.550Z,5.97
2023-01-05T23:04:54.287Z,5.93
2023-01-05T23:07:24.103Z,5.93
2023-01-05T23:09:51.719Z,5.94
2023-01-05T23:12:19.313Z,5.97
2023-01-05T23:14:48.893Z,6.01
2023-01-05T23:17:16.537Z,6.00
2023-01-05T23:19:44.105Z,6.00
2023-01-05T23:22:11.756Z,6.00
2023-01-05T23:24:39.389Z,6.01
2023-01-05T23:27:07.078Z,6.03
2023-01-05T23:29:36.174Z,6.00
2023-01-05T23:32:04.866Z,6.05
2023-01-05T23:34:33.039Z,5.98
2023-01-05T23:37:00.729Z,5.96
2023-01-05T23:39:28.183Z,5.91
2023-01-05T23:41:55.777Z,5.92
2023-01-05T23:44:23.371Z,5.97
2023-01-05T23:46:51.068Z,5.94
2023-01-05T23:49:18.579Z,5.95
2023-01-05T23:51:46.139Z,5.92
2023-01-05T23:54:13.720Z,5.98
2023-01-05T23:56:41.780Z,6.03
2023-01-05T23:59:09.656Z,6.07
